createdAt,value
2018-05-01T00:00:23.828Z,997.93
2018-05-01T00:01:23.794Z,997.85
2018-05-01T00:02:23.770Z,997.84
2018-05-01T00:03:23.750Z,998.00
2018-05-01T00:04:23.709Z,998.02
2018-05-01T00:05:23.681Z,997.93
2018-05-01T00:06:23.655Z,997.91
2018-05-01T00:07:23.621Z,997.97
2018-05-01T00:08:23.585Z,997.96
2018-05-01T00:09:23.555Z,997.85
2018-05-01T00:10:23.520Z,997.93
2018-05-01T00:11:23.486Z,997.87
2018-05-01T00:12:23.453Z,997.93
2018-05-01T00:13:23.423Z,997.93
2018-05-01T00:14:23.390Z,997.84
2018-05-01T00:15:23.373Z,997.94
2018-05-01T00:16:23.333Z,997.93
2018-05-01T00:17:23.303Z,997.97
2018-05-01T00:18:23.273Z,997.90
2018-05-01T00:19:23.240Z,997.95
2018-05-01T00:20:23.212Z,997.92
2018-05-01T00:21:23.172Z,998.05
2018-05-01T00:22:23.143Z,997.94
2018-05-01T00:23:23.109Z,997.98
2018-05-01T00:24:23.092Z,997.99
2018-05-01T00:25:23.046Z,998.03
2018-05-01T00:26:23.020Z,997.93
2018-05-01T00:27:22.981Z,997.91
2018-05-01T00:28:22.955Z,997.97
2018-05-01T00:29:22.925Z,998.00
2018-05-01T00:30:22.889Z,998.15
2018-05-01T00:31:22.855Z,998.03
2018-05-01T00:32:22.827Z,998.06
2018-05-01T00:33:22.793Z,998.09
2018-05-01T00:34:22.768Z,998.12
2018-05-01T00:35:22.739Z,998.10
2018-05-01T00:36:22.702Z,998.07
2018-05-01T00:37:22.672Z,998.32
2018-05-01T00:38:22.645Z,998.09
2018-05-01T00:39:22.637Z,998.16
2018-05-01T00:40:22.579Z,998.29
2018-05-01T00:41:22.552Z,998.20
2018-05-01T00:42:22.514Z,998.23
2018-05-01T00:43:22.485Z,998.12
2018-05-01T00:44:22.453Z,998.25
2018-05-01T00:45:22.412Z,998.25
2018-05-01T00:46:22.382Z,998.44
2018-05-01T00:47:22.357Z,998.62
2018-05-01T00:48:22.323Z,998.43
2018-05-01T00:49:22.297Z,998.54
2018-05-01T00:50:22.271Z,998.49
2018-05-01T00:51:22.236Z,998.37
2018-05-01T00:52:22.203Z,998.39
2018-05-01T00:53:22.179Z,998.71
2018-05-01T00:54:22.139Z,998.44
2018-05-01T00:55:22.115Z,998.51
2018-05-01T00:56:22.083Z,998.46
2018-05-01T00:57:22.040Z,998.43
2018-05-01T00:58:22.008Z,998.54
2018-05-01T00:59:21.977Z,998.51
2018-05-01T01:00:21.941Z,998.44
2018-05-01T01:01:21.910Z,998.47
2018-05-01T01:02:21.885Z,998.54
2018-05-01T01:03:21.852Z,998.44
2018-05-01T01:04:21.827Z,998.49
2018-05-01T01:05:21.794Z,998.51
2018-05-01T01:06:21.754Z,998.47
2018-05-01T01:07:21.729Z,998.50
2018-05-01T01:08:21.701Z,998.50
2018-05-01T01:09:21.664Z,998.63
2018-05-01T01:10:21.634Z,998.44
2018-05-01T01:11:21.599Z,998.44
2018-05-01T01:12:21.568Z,998.57
2018-05-01T01:13:21.539Z,998.60
2018-05-01T01:14:21.513Z,998.54
2018-05-01T01:15:21.475Z,998.63
2018-05-01T01:16:21.447Z,998.55
2018-05-01T01:17:21.408Z,998.58
2018-05-01T01:18:21.388Z,998.61
2018-05-01T01:19:21.353Z,998.64
2018-05-01T01:20:21.316Z,998.53
2018-05-01T01:21:21.285Z,998.64
2018-05-01T01:22:21.256Z,998.64
2018-05-01T01:23:21.229Z,998.57
2018-05-01T01:24:21.186Z,998.74
2018-05-01T01:25:21.150Z,998.62
2018-05-01T01:26:21.126Z,998.81
2018-05-01T01:27:21.092Z,998.70
2018-05-01T01:28:21.066Z,998.86
2018-05-01T01:29:21.025Z,998.65
2018-05-01T01:30:21.000Z,998.96
2018-05-01T01:31:20.971Z,998.82
2018-05-01T01:32:20.961Z,998.67
2018-05-01T01:33:20.909Z,998.73
2018-05-01T01:34:20.874Z,998.76
2018-05-01T01:35:20.841Z,998.83
2018-05-01T01:36:20.813Z,998.95
2018-05-01T01:37:20.791Z,998.73
2018-05-01T01:38:20.743Z,998.90
2018-05-01T01:39:20.719Z,998.87
2018-05-01T01:40:20.678Z,998.89
2018-05-01T01:41:20.652Z,998.97
2018-05-01T01:42:20.620Z,998.86
2018-05-01T01:43:20.591Z,998.85
2018-05-01T01:44:20.553Z,998.83
2018-05-01T01:45:20.524Z,998.90
2018-05-01T01:46:20.497Z,999.00
2018-05-01T01:47:20.464Z,998.95
2018-05-01T01:48:20.436Z,998.89
2018-05-01T01:49:20.398Z,998.90
2018-05-01T01:50:20.370Z,998.90
2018-05-01T01:51:20.338Z,998.83
2018-05-01T01:52:20.378Z,998.95
2018-05-01T01:53:20.274Z,998.97
2018-05-01T01:54:20.238Z,998.93
2018-05-01T01:55:20.210Z,998.85
2018-05-01T01:56:20.178Z,998.98
2018-05-01T01:57:20.145Z,998.98
2018-05-01T01:58:20.111Z,999.04
2018-05-01T01:59:20.084Z,999.03
2018-05-01T02:00:20.053Z,998.97
2018-05-01T02:01:20.015Z,999.00
2018-05-01T02:02:19.996Z,999.08
2018-05-01T02:03:19.964Z,998.99
2018-05-01T02:04:19.923Z,999.09
2018-05-01T02:05:19.898Z,999.00
2018-05-01T02:06:19.858Z,998.97
2018-05-01T02:07:19.831Z,999.09
2018-05-01T02:08:19.805Z,999.23
2018-05-01T02:09:19.761Z,999.27
2018-05-01T02:10:19.740Z,999.02
2018-05-01T02:11:19.713Z,999.15
2018-05-01T02:12:19.674Z,999.18
2018-05-01T02:13:19.642Z,999.12
2018-05-01T02:14:19.623Z,999.22
2018-05-01T02:15:19.583Z,999.05
2018-05-01T02:16:19.549Z,999.24
2018-05-01T02:17:19.515Z,999.21
2018-05-01T02:18:19.488Z,999.12
2018-05-01T02:19:19.447Z,999.19
2018-05-01T02:20:19.415Z,999.19
2018-05-01T02:21:19.384Z,999.25
2018-05-01T02:22:19.355Z,999.24
2018-05-01T02:23:19.320Z,999.25
2018-05-01T02:24:19.288Z,999.22
2018-05-01T02:25:19.258Z,999.28
2018-05-01T02:26:19.234Z,999.26
2018-05-01T02:27:19.201Z,999.18
2018-05-01T02:28:19.169Z,999.35
2018-05-01T02:29:19.138Z,999.27
2018-05-01T02:30:19.106Z,999.38
2018-05-01T02:31:19.071Z,999.25
2018-05-01T02:32:19.043Z,999.52
2018-05-01T02:33:19.012Z,999.45
2018-05-01T02:34:18.975Z,999.76
2018-05-01T02:35:18.942Z,999.48
2018-05-01T02:36:18.907Z,999.67
2018-05-01T02:37:18.877Z,999.35
2018-05-01T02:38:18.848Z,999.44
2018-05-01T02:39:18.813Z,999.49
2018-05-01T02:40:18.787Z,999.52
2018-05-01T02:41:18.758Z,999.53
2018-05-01T02:42:18.724Z,999.55
2018-05-01T02:43:18.691Z,999.44
2018-05-01T02:44:18.664Z,999.36
2018-05-01T02:45:18.733Z,999.57
2018-05-01T02:46:18.602Z,999.69
2018-05-01T02:47:18.573Z,999.59
2018-05-01T02:48:18.561Z,999.59
2018-05-01T02:49:18.502Z,999.50
2018-05-01T02:50:18.464Z,999.47
2018-05-01T02:51:18.436Z,999.56
2018-05-01T02:52:18.401Z,999.45
2018-05-01T02:53:18.376Z,999.66
2018-05-01T02:54:18.336Z,999.63
2018-05-01T02:55:18.304Z,999.64
2018-05-01T02:56:18.270Z,999.63
2018-05-01T02:57:18.241Z,999.69
2018-05-01T02:58:18.217Z,999.85
2018-05-01T02:59:18.191Z,999.58
2018-05-01T03:00:18.155Z,999.67
2018-05-01T03:01:18.117Z,999.61
2018-05-01T03:02:18.091Z,999.72
2018-05-01T03:03:18.055Z,999.77
2018-05-01T03:04:18.025Z,999.68
2018-05-01T03:05:17.995Z,999.69
2018-05-01T03:06:17.961Z,999.82
2018-05-01T03:07:17.930Z,999.73
2018-05-01T03:08:17.892Z,999.72
2018-05-01T03:09:17.861Z,999.71
2018-05-01T03:10:17.835Z,999.93
2018-05-01T03:11:17.805Z,999.76
2018-05-01T03:12:17.770Z,999.89
2018-05-01T03:13:17.743Z,999.76
2018-05-01T03:14:17.715Z,999.70
2018-05-01T03:15:17.673Z,999.83
2018-05-01T03:16:17.641Z,999.78
2018-05-01T03:17:17.604Z,999.87
2018-05-01T03:18:17.575Z,999.78
2018-05-01T03:19:17.545Z,999.81
2018-05-01T03:20:17.511Z,999.80
2018-05-01T03:21:17.482Z,999.81
2018-05-01T03:22:17.452Z,999.86
2018-05-01T03:23:17.423Z,999.81
2018-05-01T03:24:17.387Z,999.94
2018-05-01T03:25:17.383Z,999.86
2018-05-01T03:26:17.329Z,999.84
2018-05-01T03:27:17.301Z,999.95
2018-05-01T03:28:17.269Z,999.89
2018-05-01T03:29:17.227Z,999.98
2018-05-01T03:30:17.198Z,999.99
2018-05-01T03:31:17.163Z,999.95
2018-05-01T03:32:17.128Z,999.93
2018-05-01T03:33:17.101Z,999.79
2018-05-01T03:34:17.071Z,999.87
2018-05-01T03:35:17.041Z,1000.03
2018-05-01T03:36:17.006Z,999.99
2018-05-01T03:37:16.977Z,999.93
2018-05-01T03:38:16.948Z,999.91
2018-05-01T03:39:16.935Z,1000.07
2018-05-01T03:40:16.893Z,999.99
2018-05-01T03:41:16.859Z,1000.11
2018-05-01T03:42:16.824Z,999.96
2018-05-01T03:43:16.840Z,1000.08
2018-05-01T03:44:16.755Z,1000.08
2018-05-01T03:45:16.722Z,1000.16
2018-05-01T03:46:16.694Z,1000.10
2018-05-01T03:47:16.653Z,1000.17
2018-05-01T03:48:16.625Z,1000.22
2018-05-01T03:49:16.593Z,1000.25
2018-05-01T03:50:16.561Z,1000.18
2018-05-01T03:51:16.536Z,1000.30
2018-05-01T03:52:16.501Z,1000.33
2018-05-01T03:53:16.464Z,1000.29
2018-05-01T03:54:16.436Z,1000.25
2018-05-01T03:55:16.408Z,1000.31
2018-05-01T03:56:16.373Z,1000.29
2018-05-01T03:57:16.345Z,1000.30
2018-05-01T03:58:16.313Z,1000.22
2018-05-01T03:59:16.278Z,1000.26
2018-05-01T04:00:16.252Z,1000.29
2018-05-01T04:01:16.225Z,1000.34
2018-05-01T04:02:16.194Z,1000.43
2018-05-01T04:03:16.148Z,1000.48
2018-05-01T04:04:16.114Z,1000.40
2018-05-01T04:05:16.087Z,1000.52
2018-05-01T04:06:16.051Z,1000.50
2018-05-01T04:07:16.026Z,1000.48
2018-05-01T04:08:15.989Z,1000.53
2018-05-01T04:09:15.964Z,1000.61
2018-05-01T04:10:15.934Z,1000.55
2018-05-01T04:11:15.897Z,1000.57
2018-05-01T04:12:15.868Z,1000.50
2018-05-01T04:13:15.839Z,1000.64
2018-05-01T04:14:15.798Z,1000.74
2018-05-01T04:15:15.766Z,1000.60
2018-05-01T04:16:15.734Z,1000.76
2018-05-01T04:17:15.705Z,1000.73
2018-05-01T04:18:15.764Z,1000.68
2018-05-01T04:19:15.644Z,1000.72
2018-05-01T04:20:15.618Z,1000.82
2018-05-01T04:21:15.588Z,1000.89
2018-05-01T04:22:15.553Z,1000.85
2018-05-01T04:23:15.520Z,1000.95
2018-05-01T04:24:15.492Z,1000.86
2018-05-01T04:25:15.461Z,1001.03
2018-05-01T04:26:15.421Z,1000.83
2018-05-01T04:27:15.388Z,1000.91
2018-05-01T04:28:15.355Z,1000.80
2018-05-01T04:29:15.333Z,1000.86
2018-05-01T04:30:15.294Z,1000.95
2018-05-01T04:31:15.260Z,1000.85
2018-05-01T04:32:15.226Z,1001.01
2018-05-01T04:33:15.191Z,1001.01
2018-05-01T04:34:15.173Z,1000.86
2018-05-01T04:35:15.140Z,1000.71
2018-05-01T04:36:15.101Z,1000.92
2018-05-01T04:37:15.073Z,1000.98
2018-05-01T04:38:15.042Z,1001.11
2018-05-01T04:39:15.016Z,1001.01
2018-05-01T04:40:14.975Z,1001.06
2018-05-01T04:41:14.949Z,1001.06
2018-05-01T04:42:14.911Z,1001.15
2018-05-01T04:43:14.874Z,1000.98
2018-05-01T04:44:14.845Z,1001.14
2018-05-01T04:45:14.811Z,1001.08
2018-05-01T04:46:14.786Z,1001.22
2018-05-01T04:47:14.752Z,1001.18
2018-05-01T04:48:14.720Z,1001.07
2018-05-01T04:49:14.716Z,1001.20
2018-05-01T04:50:14.664Z,1001.10
2018-05-01T04:51:14.626Z,1001.14
2018-05-01T04:52:14.602Z,1001.21
2018-05-01T04:53:14.562Z,1001.19
2018-05-01T04:54:14.531Z,1001.24
2018-05-01T04:55:14.506Z,1001.34
2018-05-01T04:56:14.480Z,1001.31
2018-05-01T04:57:14.439Z,1001.26
2018-05-01T04:58:14.404Z,1001.36
2018-05-01T04:59:14.378Z,1001.25
2018-05-01T05:00:14.338Z,1001.24
2018-05-01T05:01:14.318Z,1001.38
2018-05-01T05:02:14.286Z,1001.32
2018-05-01T05:03:14.249Z,1001.45
2018-05-01T05:04:14.221Z,1001.53
2018-05-01T05:05:14.188Z,1001.58
2018-05-01T05:06:14.163Z,1001.42
2018-05-01T05:07:14.125Z,1001.55
2018-05-01T05:08:14.089Z,1001.44
2018-05-01T05:09:14.071Z,1001.54
2018-05-01T05:10:14.029Z,1001.47
2018-05-01T05:11:14.001Z,1001.56
2018-05-01T05:12:13.970Z,1001.44
2018-05-01T05:13:13.936Z,1001.51
2018-05-01T05:14:13.900Z,1001.53
2018-05-01T05:15:13.872Z,1001.65
2018-05-01T05:16:13.834Z,1001.63
2018-05-01T05:17:13.814Z,1001.58
2018-05-01T05:18:13.778Z,1001.70
2018-05-01T05:19:13.747Z,1001.63
2018-05-01T05:20:13.720Z,1001.75
2018-05-01T05:21:13.689Z,1001.68
2018-05-01T05:22:13.674Z,1001.55
2018-05-01T05:23:13.614Z,1001.69
2018-05-01T05:24:13.583Z,1001.66
2018-05-01T05:25:13.554Z,1001.72
2018-05-01T05:26:13.520Z,1001.75
2018-05-01T05:27:13.495Z,1001.71
2018-05-01T05:28:13.462Z,1001.81
2018-05-01T05:29:13.424Z,1002.00
2018-05-01T05:30:13.396Z,1001.92
2018-05-01T05:31:13.366Z,1002.09
2018-05-01T05:32:13.336Z,1001.95
2018-05-01T05:33:13.304Z,1001.90
2018-05-01T05:34:13.274Z,1001.96
2018-05-01T05:35:13.244Z,1002.05
2018-05-01T05:36:13.272Z,1001.93
2018-05-01T05:37:13.176Z,1002.05
2018-05-01T05:38:13.138Z,1002.35
2018-05-01T05:39:13.118Z,1002.03
2018-05-01T05:40:13.083Z,1002.03
2018-05-01T05:41:13.048Z,1002.02
2018-05-01T05:42:13.014Z,1002.09
2018-05-01T05:43:12.985Z,1002.13
2018-05-01T05:44:12.948Z,1002.14
2018-05-01T05:45:12.921Z,1002.08
2018-05-01T05:46:12.894Z,1002.12
2018-05-01T05:47:12.861Z,1002.32
2018-05-01T05:48:12.837Z,1002.20
2018-05-01T05:49:12.802Z,1002.27
2018-05-01T05:50:12.765Z,1002.22
2018-05-01T05:51:12.741Z,1002.32
2018-05-01T05:52:12.714Z,1002.48
2018-05-01T05:53:12.672Z,1002.34
2018-05-01T05:54:12.637Z,1002.22
2018-05-01T05:55:12.603Z,1002.28
2018-05-01T05:56:12.573Z,1002.50
2018-05-01T05:57:12.543Z,1002.57
2018-05-01T05:58:12.515Z,1002.42
2018-05-01T05:59:12.481Z,1002.51
2018-05-01T06:00:12.452Z,1002.45
2018-05-01T06:01:12.512Z,1002.54
2018-05-01T06:02:12.388Z,1002.46
2018-05-01T06:03:12.364Z,1002.49
2018-05-01T06:04:12.324Z,1002.52
2018-05-01T06:05:12.294Z,1002.57
2018-05-01T06:06:12.268Z,1002.51
2018-05-01T06:07:12.229Z,1002.56
2018-05-01T06:08:12.222Z,1002.60
2018-05-01T06:09:12.171Z,1002.52
2018-05-01T06:10:12.133Z,1002.62
2018-05-01T06:11:12.102Z,1002.69
2018-05-01T06:12:12.073Z,1002.65
2018-05-01T06:13:12.043Z,1002.67
2018-05-01T06:14:12.005Z,1002.62
2018-05-01T06:15:11.974Z,1002.71
2018-05-01T06:16:11.946Z,1002.76
2018-05-01T06:17:11.935Z,1002.80
2018-05-01T06:18:11.890Z,1002.73
2018-05-01T06:19:11.865Z,1002.96
2018-05-01T06:20:11.820Z,1002.86
2018-05-01T06:21:11.789Z,1002.86
2018-05-01T06:22:11.844Z,1002.78
2018-05-01T06:23:11.727Z,1002.86
2018-05-01T06:24:11.691Z,1002.98
2018-05-01T06:25:11.659Z,1002.95
2018-05-01T06:26:11.637Z,1002.97
2018-05-01T06:27:11.599Z,1002.94
2018-05-01T06:28:11.570Z,1003.04
2018-05-01T06:29:11.541Z,1003.04
2018-05-01T06:30:11.515Z,1002.87
2018-05-01T06:31:11.551Z,1002.95
2018-05-01T06:32:11.449Z,1003.01
2018-05-01T06:33:11.414Z,1003.12
2018-05-01T06:34:11.379Z,1003.08
2018-05-01T06:35:11.348Z,1003.08
2018-05-01T06:36:11.310Z,1003.02
2018-05-01T06:37:11.284Z,1003.02
2018-05-01T06:38:11.257Z,1003.11
2018-05-01T06:39:11.215Z,1003.07
2018-05-01T06:40:11.189Z,1003.15
2018-05-01T06:41:11.153Z,1003.26
2018-05-01T06:42:11.131Z,1003.19
2018-05-01T06:43:11.107Z,1003.31
2018-05-01T06:44:11.065Z,1003.22
2018-05-01T06:45:11.038Z,1003.37
2018-05-01T06:46:11.009Z,1003.29
2018-05-01T06:47:10.978Z,1003.25
2018-05-01T06:48:10.938Z,1003.26
2018-05-01T06:49:10.908Z,1003.35
2018-05-01T06:50:10.879Z,1003.28
2018-05-01T06:51:10.841Z,1003.51
2018-05-01T06:52:10.812Z,1003.36
2018-05-01T06:53:10.779Z,1003.45
2018-05-01T06:54:10.751Z,1003.57
2018-05-01T06:55:10.727Z,1003.44
2018-05-01T06:56:10.684Z,1003.39
2018-05-01T06:57:10.657Z,1003.52
2018-05-01T06:58:10.631Z,1003.51
2018-05-01T06:59:10.596Z,1003.49
2018-05-01T07:00:10.570Z,1003.45
2018-05-01T07:01:10.534Z,1003.59
2018-05-01T07:02:10.510Z,1003.49
2018-05-01T07:03:10.484Z,1003.40
2018-05-01T07:04:10.504Z,1003.64
2018-05-01T07:05:10.419Z,1003.50
2018-05-01T07:06:10.385Z,1003.65
2018-05-01T07:07:10.349Z,1003.84
2018-05-01T07:08:10.319Z,1004.14
2018-05-01T07:09:10.287Z,1004.02
2018-05-01T07:10:10.308Z,1003.63
2018-05-01T07:11:10.223Z,1003.75
2018-05-01T07:12:10.249Z,1003.76
2018-05-01T07:13:10.160Z,1003.70
2018-05-01T07:14:10.139Z,1003.87
2018-05-01T07:15:10.111Z,1003.75
2018-05-01T07:16:10.074Z,1003.98
2018-05-01T07:17:10.081Z,1003.79
2018-05-01T07:18:10.023Z,1004.03
2018-05-01T07:19:09.996Z,1003.76
2018-05-01T07:20:09.983Z,1003.79
2018-05-01T07:21:09.941Z,1003.94
2018-05-01T07:22:09.891Z,1003.85
2018-05-01T07:23:09.870Z,1003.96
2018-05-01T07:24:09.833Z,1004.00
2018-05-01T07:25:09.810Z,1003.99
2018-05-01T07:26:09.775Z,1003.96
2018-05-01T07:27:09.743Z,1003.98
2018-05-01T07:28:09.713Z,1003.97
2018-05-01T07:29:09.680Z,1003.92
2018-05-01T07:30:09.652Z,1003.95
2018-05-01T07:31:09.631Z,1003.98
2018-05-01T07:32:09.599Z,1004.12
2018-05-01T07:33:09.565Z,1003.96
2018-05-01T07:34:09.544Z,1004.12
2018-05-01T07:35:09.514Z,1004.12
2018-05-01T07:36:09.472Z,1004.18
2018-05-01T07:37:09.451Z,1004.09
2018-05-01T07:38:09.412Z,1004.16
2018-05-01T07:39:09.381Z,1004.16
2018-05-01T07:40:09.348Z,1004.13
2018-05-01T07:41:09.317Z,1004.12
2018-05-01T07:42:09.283Z,1004.07
2018-05-01T07:43:09.265Z,1004.35
2018-05-01T07:44:09.226Z,1004.13
2018-05-01T07:45:09.202Z,1004.19
2018-05-01T07:46:09.170Z,1004.10
2018-05-01T07:47:09.139Z,1004.13
2018-05-01T07:48:09.116Z,1004.27
2018-05-01T07:49:09.099Z,1004.19
2018-05-01T07:50:09.053Z,1004.48
2018-05-01T07:51:09.022Z,1004.40
2018-05-01T07:52:08.997Z,1004.18
2018-05-01T07:53:08.974Z,1004.07
2018-05-01T07:54:08.949Z,1004.26
2018-05-01T07:55:08.900Z,1004.32
2018-05-01T07:56:08.868Z,1004.37
2018-05-01T07:57:08.849Z,1004.33
2018-05-01T07:58:08.809Z,1004.38
2018-05-01T07:59:08.783Z,1004.34
2018-05-01T08:00:08.750Z,1004.49
2018-05-01T08:01:08.749Z,1004.28
2018-05-01T08:02:08.695Z,1004.30
2018-05-01T08:03:08.667Z,1004.28
2018-05-01T08:04:08.632Z,1004.43
2018-05-01T08:05:08.605Z,1004.49
2018-05-01T08:06:08.575Z,1004.40
2018-05-01T08:07:08.562Z,1004.47
2018-05-01T08:08:08.523Z,1004.48
2018-05-01T08:09:08.493Z,1004.34
2018-05-01T08:10:08.460Z,1004.64
2018-05-01T08:11:08.428Z,1004.54
2018-05-01T08:12:08.495Z,1004.53
2018-05-01T08:13:08.368Z,1004.57
2018-05-01T08:14:08.335Z,1004.41
2018-05-01T08:15:08.308Z,1004.56
2018-05-01T08:16:08.282Z,1004.50
2018-05-01T08:17:08.259Z,1004.45
2018-05-01T08:18:08.230Z,1004.49
2018-05-01T08:19:08.198Z,1004.47
2018-05-01T08:20:08.167Z,1004.53
2018-05-01T08:21:08.159Z,1004.50
2018-05-01T08:22:08.165Z,1004.58
2018-05-01T08:23:08.089Z,1004.58
2018-05-01T08:24:08.141Z,1004.67
2018-05-01T08:25:08.022Z,1004.64
2018-05-01T08:26:07.990Z,1004.59
2018-05-01T08:27:07.964Z,1004.69
2018-05-01T08:28:07.930Z,1004.63
2018-05-01T08:29:07.907Z,1004.65
2018-05-01T08:30:07.883Z,1004.63
2018-05-01T08:31:07.853Z,1004.70
2018-05-01T08:32:07.824Z,1004.69
2018-05-01T08:33:07.794Z,1004.65
2018-05-01T08:34:07.764Z,1004.76
2018-05-01T08:35:07.729Z,1004.67
2018-05-01T08:36:07.706Z,1004.64
2018-05-01T08:37:07.674Z,1004.73
2018-05-01T08:38:07.641Z,1004.72
2018-05-01T08:39:07.615Z,1004.76
2018-05-01T08:40:07.586Z,1004.72
2018-05-01T08:41:07.558Z,1004.88
2018-05-01T08:42:07.541Z,1004.78
2018-05-01T08:43:07.505Z,1004.76
2018-05-01T08:44:07.477Z,1004.69
2018-05-01T08:45:07.454Z,1004.78
2018-05-01T08:46:07.425Z,1004.79
2018-05-01T08:47:07.429Z,1004.81
2018-05-01T08:48:07.363Z,1004.83
2018-05-01T08:49:07.351Z,1004.86
2018-05-01T08:50:07.310Z,1005.25
2018-05-01T08:51:07.409Z,1004.86
2018-05-01T08:52:07.245Z,1004.75
2018-05-01T08:53:07.216Z,1004.67
2018-05-01T08:54:07.189Z,1004.82
2018-05-01T08:55:07.161Z,1004.78
2018-05-01T08:56:07.134Z,1004.85
2018-05-01T08:57:07.106Z,1004.96
2018-05-01T08:58:07.082Z,1004.89
2018-05-01T08:59:07.065Z,1004.96
2018-05-01T09:00:07.022Z,1005.03
2018-05-01T09:01:07.027Z,1005.02
2018-05-01T09:02:06.963Z,1005.05
2018-05-01T09:03:06.942Z,1005.44
2018-05-01T09:04:06.919Z,1005.15
2018-05-01T09:05:06.948Z,1005.14
2018-05-01T09:06:06.852Z,1005.15
2018-05-01T09:07:06.825Z,1005.17
2018-05-01T09:08:06.785Z,1005.15
2018-05-01T09:09:06.764Z,1005.00
2018-05-01T09:10:06.732Z,1005.06
2018-05-01T09:11:06.702Z,1005.08
2018-05-01T09:12:06.682Z,1005.16
2018-05-01T09:13:06.653Z,1005.40
2018-05-01T09:14:06.624Z,1005.17
2018-05-01T09:15:06.652Z,1005.15
2018-05-01T09:16:06.569Z,1005.09
2018-05-01T09:17:06.537Z,1005.13
2018-05-01T09:18:06.569Z,1005.16
2018-05-01T09:19:06.481Z,1005.27
2018-05-01T09:20:06.458Z,1005.23
2018-05-01T09:21:06.444Z,1005.21
2018-05-01T09:22:06.396Z,1005.22
2018-05-01T09:23:06.362Z,1005.25
2018-05-01T09:24:06.337Z,1005.32
2018-05-01T09:25:06.306Z,1005.37
2018-05-01T09:26:06.288Z,1005.49
2018-05-01T09:27:06.252Z,1005.18
2018-05-01T09:28:06.222Z,1005.31
2018-05-01T09:29:06.193Z,1005.52
2018-05-01T09:30:06.169Z,1005.36
2018-05-01T09:31:06.145Z,1005.37
2018-05-01T09:32:06.113Z,1005.27
2018-05-01T09:33:06.089Z,1005.36
2018-05-01T09:34:06.053Z,1005.35
2018-05-01T09:35:06.027Z,1005.46
2018-05-01T09:36:05.998Z,1005.33
2018-05-01T09:37:05.967Z,1005.36
2018-05-01T09:38:05.951Z,1005.46
2018-05-01T09:39:05.925Z,1005.38
2018-05-01T09:40:05.890Z,1005.41
2018-05-01T09:41:05.868Z,1005.47
2018-05-01T09:42:05.846Z,1005.56
2018-05-01T09:43:05.812Z,1005.55
2018-05-01T09:44:05.779Z,1005.60
2018-05-01T09:45:05.758Z,1005.50
2018-05-01T09:46:05.723Z,1005.73
2018-05-01T09:47:05.693Z,1005.68
2018-05-01T09:48:05.664Z,1005.58
2018-05-01T09:49:05.641Z,1005.66
2018-05-01T09:50:05.611Z,1005.72
2018-05-01T09:51:05.580Z,1005.57
2018-05-01T09:52:05.554Z,1005.59
2018-05-01T09:53:05.531Z,1005.53
2018-05-01T09:54:05.509Z,1005.50
2018-05-01T09:55:05.479Z,1005.83
2018-05-01T09:56:05.449Z,1005.73
2018-05-01T09:57:05.422Z,1005.69
2018-05-01T09:58:05.395Z,1005.63
2018-05-01T09:59:05.365Z,1005.68
2018-05-01T10:00:05.338Z,1005.66
2018-05-01T10:01:05.311Z,1005.65
2018-05-01T10:02:05.277Z,1005.71
2018-05-01T10:03:05.253Z,1005.64
2018-05-01T10:04:05.225Z,1005.59
2018-05-01T10:05:05.197Z,1005.63
2018-05-01T10:06:05.174Z,1005.62
2018-05-01T10:07:05.143Z,1005.64
2018-05-01T10:08:05.113Z,1005.75
2018-05-01T10:09:05.088Z,1005.61
2018-05-01T10:10:05.064Z,1005.92
2018-05-01T10:11:05.040Z,1005.69
2018-05-01T10:12:05.019Z,1005.74
2018-05-01T10:13:04.984Z,1005.76
2018-05-01T10:14:04.952Z,1005.66
2018-05-01T10:15:04.928Z,1005.84
2018-05-01T10:16:04.898Z,1005.62
2018-05-01T10:17:04.873Z,1005.63
2018-05-01T10:18:04.849Z,1005.71
2018-05-01T10:19:04.812Z,1005.66
2018-05-01T10:20:04.789Z,1005.59
2018-05-01T10:21:04.756Z,1005.67
2018-05-01T10:22:04.728Z,1005.63
2018-05-01T10:23:04.703Z,1005.61
2018-05-01T10:24:04.676Z,1006.01
2018-05-01T10:25:04.647Z,1005.70
2018-05-01T10:26:04.637Z,1005.70
2018-05-01T10:27:04.596Z,1005.74
2018-05-01T10:28:04.576Z,1005.75
2018-05-01T10:29:04.542Z,1005.74
2018-05-01T10:30:04.516Z,1005.83
2018-05-01T10:31:04.488Z,1005.78
2018-05-01T10:32:04.466Z,1005.77
2018-05-01T10:33:04.434Z,1005.91
2018-05-01T10:34:04.405Z,1005.84
2018-05-01T10:35:04.374Z,1005.79
2018-05-01T10:36:04.344Z,1005.90
2018-05-01T10:37:04.316Z,1005.98
2018-05-01T10:38:04.300Z,1005.91
2018-05-01T10:39:04.330Z,1005.89
2018-05-01T10:40:04.242Z,1005.94
2018-05-01T10:41:04.213Z,1005.83
2018-05-01T10:42:04.183Z,1005.93
2018-05-01T10:43:04.159Z,1005.82
2018-05-01T10:44:04.137Z,1005.89
2018-05-01T10:45:04.101Z,1005.87
2018-05-01T10:46:04.073Z,1005.79
2018-05-01T10:47:04.053Z,1005.80
2018-05-01T10:48:04.019Z,1005.89
2018-05-01T10:49:04.008Z,1005.84
2018-05-01T10:50:03.966Z,1006.00
2018-05-01T10:51:05.258Z,1006.01
2018-05-01T10:52:03.915Z,1006.07
2018-05-01T10:53:03.885Z,1006.00
2018-05-01T10:54:03.912Z,1006.04
2018-05-01T10:55:03.830Z,1005.92
2018-05-01T10:56:04.180Z,1005.95
2018-05-01T10:57:03.777Z,1006.02
2018-05-01T10:58:03.747Z,1005.97
2018-05-01T10:59:03.772Z,1006.07
2018-05-01T11:00:03.689Z,1005.98
2018-05-01T11:01:03.663Z,1005.98
2018-05-01T11:02:03.639Z,1006.05
2018-05-01T11:03:03.611Z,1006.04
2018-05-01T11:04:03.643Z,1006.03
2018-05-01T11:05:03.558Z,1005.99
2018-05-01T11:06:03.535Z,1005.96
2018-05-01T11:07:03.506Z,1006.14
2018-05-01T11:08:03.547Z,1006.06
2018-05-01T11:09:03.455Z,1006.03
2018-05-01T11:10:03.435Z,1006.04
2018-05-01T11:11:03.403Z,1006.02
2018-05-01T11:12:03.378Z,1006.10
2018-05-01T11:13:03.342Z,1006.05
2018-05-01T11:14:03.322Z,1006.12
2018-05-01T11:15:03.290Z,1006.02
2018-05-01T11:16:03.265Z,1006.07
2018-05-01T11:17:03.241Z,1006.20
2018-05-01T11:18:03.207Z,1006.11
2018-05-01T11:19:03.183Z,1006.28
2018-05-01T11:20:03.155Z,1006.25
2018-05-01T11:21:03.131Z,1006.09
2018-05-01T11:22:03.115Z,1006.18
2018-05-01T11:23:03.083Z,1006.22
2018-05-01T11:24:03.053Z,1006.29
2018-05-01T11:25:03.028Z,1006.18
2018-05-01T11:26:03.046Z,1006.33
2018-05-01T11:27:03.024Z,1006.22
2018-05-01T11:28:02.953Z,1006.18
2018-05-01T11:29:02.922Z,1006.24
2018-05-01T11:30:02.893Z,1006.24
2018-05-01T11:31:02.868Z,1006.36
2018-05-01T11:32:02.841Z,1006.28
2018-05-01T11:33:02.810Z,1006.30
2018-05-01T11:34:02.823Z,1006.45
2018-05-01T11:35:02.784Z,1006.31
2018-05-01T11:36:02.803Z,1006.31
2018-05-01T11:37:02.833Z,1006.26
2018-05-01T11:38:02.692Z,1006.31
2018-05-01T11:39:02.701Z,1006.31
2018-05-01T11:40:02.642Z,1006.28
2018-05-01T11:41:02.624Z,1006.27
2018-05-01T11:42:02.585Z,1006.40
2018-05-01T11:43:02.555Z,1006.31
2018-05-01T11:44:02.536Z,1006.28
2018-05-01T11:45:02.619Z,1006.28
2018-05-01T11:46:02.503Z,1006.32
2018-05-01T11:47:02.461Z,1006.44
2018-05-01T11:48:02.445Z,1006.41
2018-05-01T11:49:02.408Z,1006.33
2018-05-01T11:50:02.385Z,1006.57
2018-05-01T11:51:02.364Z,1006.53
2018-05-01T11:52:02.336Z,1006.40
2018-05-01T11:53:02.305Z,1006.69
2018-05-01T11:54:02.278Z,1006.57
2018-05-01T11:55:02.257Z,1006.59
2018-05-01T11:56:02.242Z,1006.54
2018-05-01T11:57:02.202Z,1006.57
2018-05-01T11:58:02.180Z,1006.62
2018-05-01T11:59:02.159Z,1006.66
2018-05-01T12:00:02.129Z,1006.56
2018-05-01T12:01:02.106Z,1006.52
2018-05-01T12:02:02.087Z,1006.59
2018-05-01T12:03:02.059Z,1006.59
2018-05-01T12:04:02.035Z,1006.66
2018-05-01T12:05:02.004Z,1006.56
2018-05-01T12:06:01.984Z,1006.78
2018-05-01T12:07:01.952Z,1006.62
2018-05-01T12:08:01.930Z,1006.57
2018-05-01T12:09:01.911Z,1006.63
2018-05-01T12:10:01.873Z,1006.71
2018-05-01T12:11:01.852Z,1006.56
2018-05-01T12:12:01.824Z,1006.73